BRU669 UMOO-UMMS
Flight info
| Callsign | BRU669 |
|---|---|
| Flight time | N/A |
| Altitude | 16000 |
| Route | RAFMA |
| Aircraft | B738/M-SDE2E3FGHIRWXY/LB1 |
Departure
| Time | 2026-04-23 18:20 |
|---|---|
| Airport | Mogilev Airport (UMOO) |
Arrival
| Time | N/A |
|---|---|
| Airport | Minsk National Airport (UMMS) |
| Time | Latitude | Longitude | Altitude | Speed | Heading |
|---|---|---|---|---|---|
| 2026-04-23 17:51 | 53.95919 | 30.09441 | 624 ft | 0 kts | 47° |
| 2026-04-23 18:16 | 53.95923 | 30.09449 | 613 ft | 4 kts | 49° |
| 2026-04-23 18:16 | 53.95906 | 30.09558 | 613 ft | 17 kts | 144° |
| 2026-04-23 18:16 | 53.95750 | 30.09570 | 620 ft | 25 kts | 197° |
| 2026-04-23 18:17 | 53.95529 | 30.09454 | 614 ft | 25 kts | 137° |
| 2026-04-23 18:17 | 53.95355 | 30.09726 | 617 ft | 41 kts | 136° |
| 2026-04-23 18:17 | 53.95148 | 30.10067 | 621 ft | 40 kts | 135° |
| 2026-04-23 18:17 | 53.94946 | 30.10397 | 614 ft | 42 kts | 137° |
| 2026-04-23 18:18 | 53.94782 | 30.10698 | 618 ft | 25 kts | 113° |
| 2026-04-23 18:18 | 53.94719 | 30.10781 | 620 ft | 2 kts | 236° |
| 2026-04-23 18:18 | 53.94733 | 30.10731 | 613 ft | 8 kts | 308° |
| 2026-04-23 18:18 | 53.94744 | 30.10711 | 612 ft | 0 kts | 315° |
| 2026-04-23 18:19 | 53.94831 | 30.10567 | 622 ft | 52 kts | 316° |
| 2026-04-23 18:19 | 53.95271 | 30.09866 | 627 ft | 122 kts | 317° |
| 2026-04-23 18:19 | 53.96030 | 30.08665 | 716 ft | 170 kts | 317° |
| 2026-04-23 18:20 | 53.96905 | 30.07260 | 1554 ft | 170 kts | 320° |
| 2026-04-23 18:20 | 53.97560 | 30.05677 | 2638 ft | 173 kts | 291° |
| 2026-04-23 18:20 | 53.97337 | 30.03676 | 3306 ft | 175 kts | 249° |
| 2026-04-23 18:20 | 53.96819 | 30.01809 | 3715 ft | 176 kts | 255° |
| 2026-04-23 18:21 | 53.96293 | 29.99797 | 3909 ft | 202 kts | 251° |
| 2026-04-23 18:21 | 53.95651 | 29.97489 | 4193 ft | 228 kts | 250° |
| 2026-04-23 18:21 | 53.95015 | 29.94939 | 4537 ft | 241 kts | 264° |
| 2026-04-23 18:21 | 53.94950 | 29.92076 | 4957 ft | 253 kts | 280° |
| 2026-04-23 18:22 | 53.95102 | 29.89053 | 5735 ft | 258 kts | 281° |
| 2026-04-23 18:22 | 53.95262 | 29.86024 | 6667 ft | 259 kts | 281° |
| 2026-04-23 18:22 | 53.95424 | 29.82951 | 7477 ft | 264 kts | 281° |
| 2026-04-23 18:22 | 53.95585 | 29.79838 | 8318 ft | 267 kts | 281° |